עמוד ראשי
METAR-TAF:

METAR-TAF

שדות תעופה :

מלבורן, פלורידה, ארצות הברית

קו רוחב: 28-06-10N, קו אורך: 080-38-45W, גובה: 10מטר

תצפית מזג אוויר נוכחית

הדו"ח נערך לפני 24דקות, בשעה 18:53 UTC
רוח 14קשר מכיוון מזרח
טמפרטורת 29 צלסיוס
לחות 74%
לחץ 1017 hPa
ראות: 16.1קילומטר
עננים פזורים בגובה 2600רגל
עננים בינוניים בגובה 3700רגל

METAR: KMLB 171853Z 08014KT 10SM SCT026 BKN037 29/24 A3002 RMK AO2 RAB06E32 SLP166 P0008 T02890239

זמן: 15:17 (19:17 UTC)

תחזית

הדו"ח נערך לפני 1 שעות ו 54דקות, בשעה 17:23 UTC
תחזית בתוקף מ 17 ב 18 UTC עד 18 ב 18 UTC
רוח 16קשר מכיוון מזרח עם משבים עד 25קשר
ראות: 10קילומטר
עננים פזורים בגובה 2500רגל
עננים פזורים בגובה 25000רגל
ממטרים במרחב
מ 18 ב 0000UTC
רוח 12קשר מכיוון מזרח
ראות: 10קילומטר
עננים פזורים בגובה 3500רגל
עננים פזורים בגובה 30000רגל
מ 18 ב 1400UTC
רוח 15קשר מכיוון מזרח עם משבים עד 23קשר
ראות: 10קילומטר
עננים פזורים בגובה 3000רגל
עננים פזורים בגובה 25000רגל

TAF: KMLB 171723Z 1718/1818 09016G25KT P6SM VCSH SCT025 SCT250 FM180000 08012KT P6SM SCT035 SCT300 FM181400 08015G23KT P6SM SCT030 SCT250

תצפיות ותחזיות מזג אוויר לגבי יותר מ- 4,000 שדות תעופה ברחבי העולם. דוחות METAR ו- TAF.

התחנות הזמינות מסומנות בנקודות צהובות ואדומות על גבי המפה.

העבר את העכבר לנקודה הצבעונית על מנת לראות את שם התחנה.

לאחר מכן, לחץ כדי לראות את תוכן ואת תחזיות מזג האוויר.

כדי לשנות את המפה: לחץ על הכפתורים הירוקים עם הפלוס השחור כדי להתקרב; על הכפתור הירוק עם המקף כדי להתרחק; או בחיצים הירוקים למפות סמוכות.


METAR-TAF: